sensor_id;sensor_type;location;lat;lon;timestamp;pressure;altitude;pressure_sealevel;temperature;humidity
65756;BME280;52489;47.502;18.940;2022-11-18T00:00:36;96766.34;;;6.61;94.79
65756;BME280;52489;47.502;18.940;2022-11-18T00:01:39;96759.63;;;6.60;94.59
65756;BME280;52489;47.502;18.940;2022-11-18T00:02:42;96758.06;;;6.59;94.35
65756;BME280;52489;47.502;18.940;2022-11-18T00:03:46;96764.84;;;6.60;94.05
65756;BME280;52489;47.502;18.940;2022-11-18T00:04:48;96756.50;;;6.50;94.33
65756;BME280;52489;47.502;18.940;2022-11-18T00:05:53;96755.16;;;6.52;93.94
65756;BME280;52489;47.502;18.940;2022-11-18T00:06:56;96765.19;;;6.36;94.42
65756;BME280;52489;47.502;18.940;2022-11-18T00:07:59;96755.28;;;6.47;94.03
65756;BME280;52489;47.502;18.940;2022-11-18T00:09:02;96752.94;;;6.37;94.31
65756;BME280;52489;47.502;18.940;2022-11-18T00:10:05;96749.34;;;6.24;94.57
65756;BME280;52489;47.502;18.940;2022-11-18T00:11:12;96749.66;;;6.23;94.62
65756;BME280;52489;47.502;18.940;2022-11-18T00:12:36;96751.66;;;6.26;95.06
65756;BME280;52489;47.502;18.940;2022-11-18T00:13:57;96745.75;;;6.11;95.88
65756;BME280;52489;47.502;18.940;2022-11-18T00:15:19;96739.84;;;6.20;95.44
65756;BME280;52489;47.502;18.940;2022-11-18T00:16:33;96748.41;;;6.20;95.59
65756;BME280;52489;47.502;18.940;2022-11-18T00:17:36;96749.47;;;6.19;95.77
65756;BME280;52489;47.502;18.940;2022-11-18T00:18:39;96751.59;;;6.17;95.83
65756;BME280;52489;47.502;18.940;2022-11-18T00:19:41;96751.47;;;6.22;95.98
65756;BME280;52489;47.502;18.940;2022-11-18T00:20:44;96748.06;;;6.13;96.48
65756;BME280;52489;47.502;18.940;2022-11-18T00:21:47;96743.41;;;6.01;96.96
65756;BME280;52489;47.502;18.940;2022-11-18T00:22:50;96750.12;;;6.02;97.35
65756;BME280;52489;47.502;18.940;2022-11-18T00:23:53;96750.91;;;6.03;97.34
65756;BME280;52489;47.502;18.940;2022-11-18T00:24:56;96748.19;;;6.08;97.17
65756;BME280;52489;47.502;18.940;2022-11-18T00:26:11;96752.78;;;6.11;97.41
65756;BME280;52489;47.502;18.940;2022-11-18T00:27:14;96745.97;;;6.24;96.67
65756;BME280;52489;47.502;18.940;2022-11-18T00:28:17;96743.50;;;6.19;96.67
65756;BME280;52489;47.502;18.940;2022-11-18T00:29:20;96742.91;;;6.22;96.78
65756;BME280;52489;47.502;18.940;2022-11-18T00:30:23;96736.81;;;6.26;96.31
65756;BME280;52489;47.502;18.940;2022-11-18T00:31:26;96744.28;;;6.19;96.19
65756;BME280;52489;47.502;18.940;2022-11-18T00:32:29;96730.19;;;6.20;96.38
65756;BME280;52489;47.502;18.940;2022-11-18T00:33:32;96729.38;;;6.11;96.75
65756;BME280;52489;47.502;18.940;2022-11-18T00:34:35;96732.75;;;6.11;97.09
65756;BME280;52489;47.502;18.940;2022-11-18T00:35:37;96732.91;;;6.06;97.35
65756;BME280;52489;47.502;18.940;2022-11-18T00:36:42;96729.22;;;6.07;97.10
65756;BME280;52489;47.502;18.940;2022-11-18T00:37:45;96723.81;;;5.95;97.88
65756;BME280;52489;47.502;18.940;2022-11-18T00:38:47;96727.06;;;6.01;98.11
65756;BME280;52489;47.502;18.940;2022-11-18T00:39:50;96725.59;;;6.17;97.25
65756;BME280;52489;47.502;18.940;2022-11-18T00:41:00;96729.28;;;6.16;96.94
65756;BME280;52489;47.502;18.940;2022-11-18T00:42:03;96722.94;;;6.08;96.76
65756;BME280;52489;47.502;18.940;2022-11-18T00:43:25;96721.69;;;6.06;97.01
65756;BME280;52489;47.502;18.940;2022-11-18T00:44:28;96720.00;;;6.01;97.19
65756;BME280;52489;47.502;18.940;2022-11-18T00:45:31;96719.41;;;6.04;96.93
65756;BME280;52489;47.502;18.940;2022-11-18T00:46:34;96712.66;;;6.03;97.11
65756;BME280;52489;47.502;18.940;2022-11-18T00:47:37;96720.47;;;6.03;97.48
65756;BME280;52489;47.502;18.940;2022-11-18T00:48:40;96710.22;;;5.98;98.08
65756;BME280;52489;47.502;18.940;2022-11-18T00:49:42;96719.84;;;5.98;98.67
65756;BME280;52489;47.502;18.940;2022-11-18T00:50:47;96719.41;;;6.04;98.93
65756;BME280;52489;47.502;18.940;2022-11-18T00:51:50;96724.78;;;6.08;99.12
65756;BME280;52489;47.502;18.940;2022-11-18T00:52:53;96727.72;;;6.15;99.27
65756;BME280;52489;47.502;18.940;2022-11-18T00:53:56;96720.19;;;6.05;99.17
65756;BME280;52489;47.502;18.940;2022-11-18T00:54:59;96718.94;;;6.02;99.26
65756;BME280;52489;47.502;18.940;2022-11-18T00:56:02;96718.34;;;6.05;99.12
65756;BME280;52489;47.502;18.940;2022-11-18T00:57:05;96715.84;;;6.00;99.23
65756;BME280;52489;47.502;18.940;2022-11-18T00:58:08;96714.50;;;6.03;99.41
65756;BME280;52489;47.502;18.940;2022-11-18T00:59:11;96716.50;;;6.06;99.20
65756;BME280;52489;47.502;18.940;2022-11-18T01:00:14;96711.03;;;6.07;98.51
65756;BME280;52489;47.502;18.940;2022-11-18T01:01:17;96715.91;;;6.09;97.13
65756;BME280;52489;47.502;18.940;2022-11-18T01:02:20;96716.66;;;6.01;97.11
65756;BME280;52489;47.502;18.940;2022-11-18T01:03:23;96717.00;;;6.08;96.20
65756;BME280;52489;47.502;18.940;2022-11-18T01:04:27;96727.34;;;5.99;96.11
65756;BME280;52489;47.502;18.940;2022-11-18T01:05:30;96721.97;;;5.96;95.82
65756;BME280;52489;47.502;18.940;2022-11-18T01:06:32;96723.06;;;6.03;96.03
65756;BME280;52489;47.502;18.940;2022-11-18T01:07:35;96723.25;;;6.07;96.39
65756;BME280;52489;47.502;18.940;2022-11-18T01:08:38;96725.81;;;5.98;96.06
65756;BME280;52489;47.502;18.940;2022-11-18T01:09:42;96714.06;;;5.64;97.20
65756;BME280;52489;47.502;18.940;2022-11-18T01:10:46;96716.63;;;5.78;97.42
65756;BME280;52489;47.502;18.940;2022-11-18T01:11:50;96713.97;;;5.92;96.82
65756;BME280;52489;47.502;18.940;2022-11-18T01:13:13;96710.13;;;5.89;97.04
65756;BME280;52489;47.502;18.940;2022-11-18T01:14:24;96712.06;;;5.84;97.79
65756;BME280;52489;47.502;18.940;2022-11-18T01:15:27;96710.00;;;5.72;98.34
65756;BME280;52489;47.502;18.940;2022-11-18T01:16:30;96714.03;;;5.78;98.68
65756;BME280;52489;47.502;18.940;2022-11-18T01:17:33;96702.59;;;5.88;98.12
65756;BME280;52489;47.502;18.940;2022-11-18T01:18:36;96703.16;;;5.76;98.82
65756;BME280;52489;47.502;18.940;2022-11-18T01:19:39;96701.56;;;5.89;98.72
65756;BME280;52489;47.502;18.940;2022-11-18T01:20:43;96685.50;;;5.87;98.88
65756;BME280;52489;47.502;18.940;2022-11-18T01:21:46;96687.41;;;5.95;98.45
65756;BME280;52489;47.502;18.940;2022-11-18T01:22:55;96700.56;;;5.99;98.10
65756;BME280;52489;47.502;18.940;2022-11-18T01:23:58;96702.41;;;5.98;98.04
65756;BME280;52489;47.502;18.940;2022-11-18T01:25:01;96688.81;;;6.01;97.96
65756;BME280;52489;47.502;18.940;2022-11-18T01:26:06;96683.47;;;5.98;98.23
65756;BME280;52489;47.502;18.940;2022-11-18T01:27:10;96678.34;;;5.92;98.91
65756;BME280;52489;47.502;18.940;2022-11-18T01:28:16;96678.87;;;5.81;99.64
65756;BME280;52489;47.502;18.940;2022-11-18T01:29:25;96676.94;;;5.86;99.79
65756;BME280;52489;47.502;18.940;2022-11-18T01:30:28;96681.91;;;5.97;98.58
65756;BME280;52489;47.502;18.940;2022-11-18T01:31:36;96680.25;;;6.01;98.57
65756;BME280;52489;47.502;18.940;2022-11-18T01:33:00;96679.38;;;5.91;98.84
65756;BME280;52489;47.502;18.940;2022-11-18T01:34:03;96683.63;;;6.01;99.21
65756;BME280;52489;47.502;18.940;2022-11-18T01:35:07;96680.41;;;6.04;99.85
65756;BME280;52489;47.502;18.940;2022-11-18T01:36:19;96683.78;;;6.05;99.91
65756;BME280;52489;47.502;18.940;2022-11-18T01:37:22;96684.50;;;5.97;100.00
65756;BME280;52489;47.502;18.940;2022-11-18T01:38:25;96687.25;;;6.00;100.00
65756;BME280;52489;47.502;18.940;2022-11-18T01:39:30;96701.81;;;6.01;100.00
65756;BME280;52489;47.502;18.940;2022-11-18T01:40:33;96703.56;;;6.14;99.84
65756;BME280;52489;47.502;18.940;2022-11-18T01:41:36;96704.34;;;5.92;99.71
65756;BME280;52489;47.502;18.940;2022-11-18T01:42:39;96707.75;;;5.57;100.00
65756;BME280;52489;47.502;18.940;2022-11-18T01:44:03;96708.31;;;5.31;100.00
65756;BME280;52489;47.502;18.940;2022-11-18T01:45:24;96708.22;;;5.59;100.00
65756;BME280;52489;47.502;18.940;2022-11-18T01:46:30;96710.53;;;5.60;100.00
65756;BME280;52489;47.502;18.940;2022-11-18T01:47:42;96707.34;;;5.63;100.00
65756;BME280;52489;47.502;18.940;2022-11-18T01:48:51;96706.22;;;5.78;99.60
65756;BME280;52489;47.502;18.940;2022-11-18T01:49:55;96709.37;;;5.89;98.67
65756;BME280;52489;47.502;18.940;2022-11-18T01:51:05;96705.28;;;5.97;97.47
65756;BME280;52489;47.502;18.940;2022-11-18T01:52:12;96704.75;;;5.86;97.38
65756;BME280;52489;47.502;18.940;2022-11-18T01:53:20;96705.88;;;5.93;96.56
65756;BME280;52489;47.502;18.940;2022-11-18T01:54:29;96710.41;;;5.88;95.87
65756;BME280;52489;47.502;18.940;2022-11-18T01:55:36;96713.19;;;5.91;95.68
65756;BME280;52489;47.502;18.940;2022-11-18T01:56:46;96715.97;;;5.73;96.50
65756;BME280;52489;47.502;18.940;2022-11-18T01:57:52;96712.72;;;5.67;97.27
65756;BME280;52489;47.502;18.940;2022-11-18T01:59:07;96710.72;;;5.64;97.56
65756;BME280;52489;47.502;18.940;2022-11-18T02:00:12;96712.25;;;5.65;98.03
65756;BME280;52489;47.502;18.940;2022-11-18T02:01:15;96703.34;;;5.57;98.35
65756;BME280;52489;47.502;18.940;2022-11-18T02:02:19;96710.06;;;5.58;98.27
65756;BME280;52489;47.502;18.940;2022-11-18T02:03:24;96707.25;;;5.68;97.57
65756;BME280;52489;47.502;18.940;2022-11-18T02:04:27;96700.91;;;5.61;97.98
65756;BME280;52489;47.502;18.940;2022-11-18T02:05:32;96700.44;;;5.59;98.05
65756;BME280;52489;47.502;18.940;2022-11-18T02:06:36;96706.09;;;5.61;97.86
65756;BME280;52489;47.502;18.940;2022-11-18T02:07:41;96704.16;;;5.66;97.08
65756;BME280;52489;47.502;18.940;2022-11-18T02:08:45;96701.78;;;5.79;95.51
65756;BME280;52489;47.502;18.940;2022-11-18T02:09:50;96705.88;;;5.71;95.11
65756;BME280;52489;47.502;18.940;2022-11-18T02:10:54;96697.78;;;5.73;94.95
65756;BME280;52489;47.502;18.940;2022-11-18T02:11:57;96693.69;;;5.58;95.57
65756;BME280;52489;47.502;18.940;2022-11-18T02:13:01;96699.22;;;5.56;96.22
65756;BME280;52489;47.502;18.940;2022-11-18T02:14:07;96689.34;;;5.44;97.04
65756;BME280;52489;47.502;18.940;2022-11-18T02:15:10;96687.75;;;5.57;97.19
65756;BME280;52489;47.502;18.940;2022-11-18T02:16:19;96684.78;;;5.50;97.30
65756;BME280;52489;47.502;18.940;2022-11-18T02:19:02;96678.53;;;5.51;97.58
65756;BME280;52489;47.502;18.940;2022-11-18T02:21:26;96683.47;;;5.61;96.05
65756;BME280;52489;47.502;18.940;2022-11-18T02:22:42;96693.28;;;5.42;96.25
65756;BME280;52489;47.502;18.940;2022-11-18T02:24:58;96696.34;;;5.44;95.81
65756;BME280;52489;47.502;18.940;2022-11-18T02:26:33;96695.13;;;5.41;95.70
65756;BME280;52489;47.502;18.940;2022-11-18T02:29:13;96683.91;;;5.55;95.26
65756;BME280;52489;47.502;18.940;2022-11-18T02:30:18;96687.72;;;5.35;96.48
65756;BME280;52489;47.502;18.940;2022-11-18T02:31:31;96683.13;;;5.32;96.66
65756;BME280;52489;47.502;18.940;2022-11-18T02:33:21;96670.19;;;5.40;95.84
65756;BME280;52489;47.502;18.940;2022-11-18T02:34:51;96673.69;;;5.36;95.37
65756;BME280;52489;47.502;18.940;2022-11-18T02:39:08;96659.88;;;5.27;96.48
65756;BME280;52489;47.502;18.940;2022-11-18T02:40:20;96655.63;;;5.31;96.06
65756;BME280;52489;47.502;18.940;2022-11-18T02:41:27;96650.50;;;5.39;95.84
65756;BME280;52489;47.502;18.940;2022-11-18T02:42:34;96650.50;;;5.39;95.80
65756;BME280;52489;47.502;18.940;2022-11-18T02:43:44;96642.97;;;5.38;95.50
65756;BME280;52489;47.502;18.940;2022-11-18T02:44:53;96640.03;;;5.31;96.17
65756;BME280;52489;47.502;18.940;2022-11-18T02:46:02;96638.72;;;5.19;97.18
65756;BME280;52489;47.502;18.940;2022-11-18T02:47:10;96638.03;;;5.28;97.43
65756;BME280;52489;47.502;18.940;2022-11-18T02:48:17;96638.97;;;5.32;97.31
65756;BME280;52489;47.502;18.940;2022-11-18T02:49:36;96629.75;;;5.25;97.54
65756;BME280;52489;47.502;18.940;2022-11-18T02:50:41;96630.47;;;5.17;97.91
65756;BME280;52489;47.502;18.940;2022-11-18T02:51:46;96628.28;;;5.11;97.85
65756;BME280;52489;47.502;18.940;2022-11-18T02:52:55;96620.88;;;5.18;97.37
65756;BME280;52489;47.502;18.940;2022-11-18T02:54:06;96628.44;;;5.14;97.05
65756;BME280;52489;47.502;18.940;2022-11-18T02:55:12;96625.69;;;5.11;97.44
65756;BME280;52489;47.502;18.940;2022-11-18T02:56:16;96628.25;;;5.24;97.11
65756;BME280;52489;47.502;18.940;2022-11-18T02:57:22;96618.94;;;5.23;97.03
65756;BME280;52489;47.502;18.940;2022-11-18T02:58:26;96632.78;;;5.19;98.21
65756;BME280;52489;47.502;18.940;2022-11-18T02:59:29;96618.06;;;5.14;98.62
65756;BME280;52489;47.502;18.940;2022-11-18T03:00:32;96622.31;;;5.10;99.87
65756;BME280;52489;47.502;18.940;2022-11-18T03:01:35;96619.31;;;5.17;100.00
65756;BME280;52489;47.502;18.940;2022-11-18T03:02:43;96615.97;;;5.16;100.00
65756;BME280;52489;47.502;18.940;2022-11-18T03:03:46;96620.38;;;5.16;100.00
65756;BME280;52489;47.502;18.940;2022-11-18T03:04:52;96625.47;;;5.21;100.00
65756;BME280;52489;47.502;18.940;2022-11-18T03:06:17;96619.75;;;5.33;100.00
65756;BME280;52489;47.502;18.940;2022-11-18T03:07:28;96630.81;;;5.47;100.00
65756;BME280;52489;47.502;18.940;2022-11-18T03:08:46;96628.59;;;5.54;100.00
65756;BME280;52489;47.502;18.940;2022-11-18T03:09:52;96635.38;;;5.64;100.00
65756;BME280;52489;47.502;18.940;2022-11-18T03:11:09;96634.13;;;5.61;100.00
65756;BME280;52489;47.502;18.940;2022-11-18T03:12:53;96629.06;;;5.56;100.00
65756;BME280;52489;47.502;18.940;2022-11-18T03:14:18;96639.53;;;5.65;100.00
65756;BME280;52489;47.502;18.940;2022-11-18T03:15:36;96638.72;;;5.64;100.00
65756;BME280;52489;47.502;18.940;2022-11-18T03:18:04;96646.56;;;5.73;100.00
65756;BME280;52489;47.502;18.940;2022-11-18T03:21:40;96651.66;;;5.78;100.00
65756;BME280;52489;47.502;18.940;2022-11-18T03:24:12;96647.75;;;5.89;100.00
65756;BME280;52489;47.502;18.940;2022-11-18T03:25:22;96645.34;;;5.93;100.00
65756;BME280;52489;47.502;18.940;2022-11-18T03:26:35;96649.34;;;5.99;100.00
65756;BME280;52489;47.502;18.940;2022-11-18T03:28:12;96641.28;;;6.01;100.00
65756;BME280;52489;47.502;18.940;2022-11-18T03:29:29;96654.16;;;6.14;100.00
65756;BME280;52489;47.502;18.940;2022-11-18T03:30:35;96647.28;;;6.10;100.00
65756;BME280;52489;47.502;18.940;2022-11-18T03:31:47;96655.22;;;6.13;100.00
65756;BME280;52489;47.502;18.940;2022-11-18T03:32:59;96656.00;;;6.14;100.00
65756;BME280;52489;47.502;18.940;2022-11-18T03:34:14;96653.41;;;6.14;100.00
65756;BME280;52489;47.502;18.940;2022-11-18T03:35:23;96653.47;;;6.31;100.00
65756;BME280;52489;47.502;18.940;2022-11-18T03:36:29;96662.47;;;6.25;100.00
65756;BME280;52489;47.502;18.940;2022-11-18T03:37:35;96662.19;;;5.96;100.00
65756;BME280;52489;47.502;18.940;2022-11-18T03:38:44;96661.59;;;5.99;100.00
65756;BME280;52489;47.502;18.940;2022-11-18T03:39:54;96654.72;;;6.03;100.00
65756;BME280;52489;47.502;18.940;2022-11-18T03:41:02;96653.78;;;5.99;100.00
65756;BME280;52489;47.502;18.940;2022-11-18T03:42:11;96662.47;;;5.94;100.00
65756;BME280;52489;47.502;18.940;2022-11-18T03:43:19;96669.72;;;5.83;100.00
65756;BME280;52489;47.502;18.940;2022-11-18T03:44:29;96668.13;;;5.74;100.00
65756;BME280;52489;47.502;18.940;2022-11-18T03:45:49;96674.28;;;5.78;100.00
65756;BME280;52489;47.502;18.940;2022-11-18T03:47:14;96672.69;;;5.68;100.00
65756;BME280;52489;47.502;18.940;2022-11-18T03:48:23;96676.19;;;5.63;100.00
65756;BME280;52489;47.502;18.940;2022-11-18T03:49:39;96681.81;;;5.88;100.00
65756;BME280;52489;47.502;18.940;2022-11-18T03:50:58;96682.56;;;5.80;100.00
65756;BME280;52489;47.502;18.940;2022-11-18T03:52:17;96682.19;;;5.73;100.00
65756;BME280;52489;47.502;18.940;2022-11-18T03:53:21;96681.72;;;5.93;100.00
65756;BME280;52489;47.502;18.940;2022-11-18T03:54:32;96679.66;;;5.81;100.00
65756;BME280;52489;47.502;18.940;2022-11-18T03:55:42;96682.78;;;5.69;100.00
65756;BME280;52489;47.502;18.940;2022-11-18T03:56:57;96680.78;;;5.66;100.00
65756;BME280;52489;47.502;18.940;2022-11-18T03:58:53;96670.69;;;5.65;100.00
65756;BME280;52489;47.502;18.940;2022-11-18T03:59:39;96669.97;;;5.73;100.00
65756;BME280;52489;47.502;18.940;2022-11-18T04:00:47;96654.66;;;5.94;100.00
65756;BME280;52489;47.502;18.940;2022-11-18T04:01:56;96666.31;;;5.97;100.00
65756;BME280;52489;47.502;18.940;2022-11-18T04:03:03;96665.91;;;6.12;100.00
65756;BME280;52489;47.502;18.940;2022-11-18T04:04:06;96663.91;;;6.09;100.00
65756;BME280;52489;47.502;18.940;2022-11-18T04:05:11;96660.13;;;6.15;100.00
65756;BME280;52489;47.502;18.940;2022-11-18T04:06:23;96664.72;;;6.18;100.00
65756;BME280;52489;47.502;18.940;2022-11-18T04:07:56;96658.75;;;6.18;100.00
65756;BME280;52489;47.502;18.940;2022-11-18T04:09:05;96651.72;;;6.18;100.00
65756;BME280;52489;47.502;18.940;2022-11-18T04:10:16;96645.00;;;6.17;100.00
65756;BME280;52489;47.502;18.940;2022-11-18T04:11:25;96632.00;;;6.17;100.00
65756;BME280;52489;47.502;18.940;2022-11-18T04:14:06;96630.69;;;5.97;100.00
65756;BME280;52489;47.502;18.940;2022-11-18T04:15:11;96622.91;;;6.06;100.00
65756;BME280;52489;47.502;18.940;2022-11-18T04:16:15;96617.72;;;6.06;100.00
65756;BME280;52489;47.502;18.940;2022-11-18T04:17:25;96624.03;;;6.13;100.00
65756;BME280;52489;47.502;18.940;2022-11-18T04:18:29;96619.66;;;6.31;100.00
65756;BME280;52489;47.502;18.940;2022-11-18T04:19:31;96612.78;;;6.35;100.00
65756;BME280;52489;47.502;18.940;2022-11-18T04:20:38;96605.41;;;6.29;100.00
65756;BME280;52489;47.502;18.940;2022-11-18T04:21:41;96606.22;;;6.38;100.00
65756;BME280;52489;47.502;18.940;2022-11-18T04:22:44;96615.81;;;6.29;100.00
65756;BME280;52489;47.502;18.940;2022-11-18T04:23:47;96605.25;;;6.25;100.00
65756;BME280;52489;47.502;18.940;2022-11-18T04:24:50;96610.28;;;6.13;100.00
65756;BME280;52489;47.502;18.940;2022-11-18T04:25:53;96608.75;;;6.21;100.00
65756;BME280;52489;47.502;18.940;2022-11-18T04:26:57;96605.75;;;6.27;100.00
65756;BME280;52489;47.502;18.940;2022-11-18T04:28:00;96607.41;;;6.32;100.00
65756;BME280;52489;47.502;18.940;2022-11-18T04:29:03;96600.38;;;6.32;100.00
65756;BME280;52489;47.502;18.940;2022-11-18T04:30:07;96603.91;;;6.28;100.00
65756;BME280;52489;47.502;18.940;2022-11-18T04:31:10;96597.19;;;6.44;100.00
65756;BME280;52489;47.502;18.940;2022-11-18T04:32:13;96593.84;;;6.52;100.00
65756;BME280;52489;47.502;18.940;2022-11-18T04:33:15;96606.09;;;6.52;100.00
65756;BME280;52489;47.502;18.940;2022-11-18T04:34:18;96595.69;;;6.52;100.00
65756;BME280;52489;47.502;18.940;2022-11-18T04:35:21;96595.56;;;6.57;100.00
65756;BME280;52489;47.502;18.940;2022-11-18T04:36:24;96592.19;;;6.65;100.00
65756;BME280;52489;47.502;18.940;2022-11-18T04:37:27;96584.38;;;6.74;100.00
65756;BME280;52489;47.502;18.940;2022-11-18T04:38:30;96590.38;;;6.66;100.00
65756;BME280;52489;47.502;18.940;2022-11-18T04:39:32;96590.62;;;6.55;100.00
65756;BME280;52489;47.502;18.940;2022-11-18T04:40:35;96581.63;;;6.61;100.00
65756;BME280;52489;47.502;18.940;2022-11-18T04:41:38;96589.13;;;6.63;100.00
65756;BME280;52489;47.502;18.940;2022-11-18T04:43:00;96588.66;;;6.61;100.00
65756;BME280;52489;47.502;18.940;2022-11-18T04:44:03;96589.75;;;6.60;100.00
65756;BME280;52489;47.502;18.940;2022-11-18T04:45:14;96589.13;;;6.63;100.00
65756;BME280;52489;47.502;18.940;2022-11-18T04:46:17;96599.84;;;6.79;100.00
65756;BME280;52489;47.502;18.940;2022-11-18T04:47:20;96596.63;;;6.73;100.00
65756;BME280;52489;47.502;18.940;2022-11-18T04:48:23;96610.88;;;6.67;100.00
65756;BME280;52489;47.502;18.940;2022-11-18T04:49:27;96606.12;;;6.69;100.00
65756;BME280;52489;47.502;18.940;2022-11-18T04:50:30;96607.19;;;6.77;100.00
65756;BME280;52489;47.502;18.940;2022-11-18T04:51:33;96612.59;;;6.80;100.00
65756;BME280;52489;47.502;18.940;2022-11-18T04:52:36;96616.37;;;6.74;100.00
65756;BME280;52489;47.502;18.940;2022-11-18T04:53:39;96623.13;;;6.67;100.00
65756;BME280;52489;47.502;18.940;2022-11-18T04:54:42;96628.00;;;6.68;100.00
65756;BME280;52489;47.502;18.940;2022-11-18T04:55:44;96628.78;;;6.69;100.00
65756;BME280;52489;47.502;18.940;2022-11-18T04:56:47;96631.38;;;6.69;100.00
65756;BME280;52489;47.502;18.940;2022-11-18T04:57:51;96628.00;;;6.68;100.00
65756;BME280;52489;47.502;18.940;2022-11-18T04:58:54;96633.53;;;6.75;100.00
65756;BME280;52489;47.502;18.940;2022-11-18T04:59:57;96631.41;;;6.77;100.00
65756;BME280;52489;47.502;18.940;2022-11-18T05:01:00;96627.59;;;6.92;100.00
65756;BME280;52489;47.502;18.940;2022-11-18T05:02:03;96625.59;;;6.89;100.00
65756;BME280;52489;47.502;18.940;2022-11-18T05:03:06;96626.50;;;6.84;100.00
65756;BME280;52489;47.502;18.940;2022-11-18T05:04:13;96624.97;;;6.66;100.00
65756;BME280;52489;47.502;18.940;2022-11-18T05:05:18;96618.19;;;6.56;100.00
65756;BME280;52489;47.502;18.940;2022-11-18T05:06:22;96617.41;;;6.47;100.00
65756;BME280;52489;47.502;18.940;2022-11-18T05:07:25;96624.94;;;6.57;100.00
65756;BME280;52489;47.502;18.940;2022-11-18T05:08:28;96622.63;;;6.65;100.00
65756;BME280;52489;47.502;18.940;2022-11-18T05:09:37;96618.53;;;6.72;100.00
65756;BME280;52489;47.502;18.940;2022-11-18T05:10:40;96619.59;;;6.71;100.00
65756;BME280;52489;47.502;18.940;2022-11-18T05:11:47;96607.19;;;6.86;100.00
65756;BME280;52489;47.502;18.940;2022-11-18T05:13:11;96607.06;;;6.91;100.00
65756;BME280;52489;47.502;18.940;2022-11-18T05:14:14;96604.31;;;6.96;100.00
65756;BME280;52489;47.502;18.940;2022-11-18T05:15:20;96606.44;;;6.94;100.00
65756;BME280;52489;47.502;18.940;2022-11-18T05:16:24;96597.41;;;6.91;100.00
65756;BME280;52489;47.502;18.940;2022-11-18T05:17:26;96595.56;;;6.92;100.00
65756;BME280;52489;47.502;18.940;2022-11-18T05:18:29;96598.34;;;6.95;100.00
65756;BME280;52489;47.502;18.940;2022-11-18T05:19:33;96601.84;;;6.91;100.00
65756;BME280;52489;47.502;18.940;2022-11-18T05:20:36;96596.34;;;6.92;100.00
65756;BME280;52489;47.502;18.940;2022-11-18T05:21:43;96610.44;;;6.91;100.00
65756;BME280;52489;47.502;18.940;2022-11-18T05:22:46;96598.97;;;6.92;100.00
65756;BME280;52489;47.502;18.940;2022-11-18T05:23:49;96604.00;;;6.89;100.00
65756;BME280;52489;47.502;18.940;2022-11-18T05:24:52;96604.78;;;6.80;100.00
65756;BME280;52489;47.502;18.940;2022-11-18T05:25:55;96594.81;;;6.91;100.00
65756;BME280;52489;47.502;18.940;2022-11-18T05:27:03;96598.78;;;7.06;100.00
65756;BME280;52489;47.502;18.940;2022-11-18T05:28:06;96593.44;;;7.02;100.00
65756;BME280;52489;47.502;18.940;2022-11-18T05:29:09;96597.28;;;6.96;100.00
65756;BME280;52489;47.502;18.940;2022-11-18T05:30:12;96600.16;;;7.03;100.00
65756;BME280;52489;47.502;18.940;2022-11-18T05:31:15;96591.59;;;7.03;100.00
65756;BME280;52489;47.502;18.940;2022-11-18T05:32:24;96588.38;;;6.89;100.00
65756;BME280;52489;47.502;18.940;2022-11-18T05:33:26;96596.19;;;6.89;100.00
65756;BME280;52489;47.502;18.940;2022-11-18T05:34:29;96589.91;;;6.81;100.00
65756;BME280;52489;47.502;18.940;2022-11-18T05:35:35;96591.59;;;6.77;100.00
65756;BME280;52489;47.502;18.940;2022-11-18T05:36:38;96596.78;;;6.86;100.00
65756;BME280;52489;47.502;18.940;2022-11-18T05:37:41;96599.09;;;6.87;100.00
65756;BME280;52489;47.502;18.940;2022-11-18T05:38:44;96603.97;;;6.80;100.00
65756;BME280;52489;47.502;18.940;2022-11-18T05:39:47;96600.00;;;6.74;100.00
65756;BME280;52489;47.502;18.940;2022-11-18T05:40:49;96597.38;;;6.65;100.00
65756;BME280;52489;47.502;18.940;2022-11-18T05:41:52;96595.28;;;6.84;100.00
65756;BME280;52489;47.502;18.940;2022-11-18T05:43:13;96603.84;;;6.85;100.00
65756;BME280;52489;47.502;18.940;2022-11-18T05:44:16;96588.53;;;6.75;100.00
65756;BME280;52489;47.502;18.940;2022-11-18T05:45:19;96588.69;;;6.78;100.00
65756;BME280;52489;47.502;18.940;2022-11-18T05:46:21;96591.56;;;6.68;100.00
65756;BME280;52489;47.502;18.940;2022-11-18T05:47:25;96573.81;;;6.70;100.00
65756;BME280;52489;47.502;18.940;2022-11-18T05:48:29;96581.34;;;6.80;100.00
65756;BME280;52489;47.502;18.940;2022-11-18T05:49:32;96584.53;;;6.86;100.00
65756;BME280;52489;47.502;18.940;2022-11-18T05:50:36;96590.06;;;6.93;100.00
65756;BME280;52489;47.502;18.940;2022-11-18T05:51:39;96583.94;;;6.98;100.00
65756;BME280;52489;47.502;18.940;2022-11-18T05:52:42;96595.41;;;6.79;100.00
65756;BME280;52489;47.502;18.940;2022-11-18T05:53:45;96595.28;;;6.84;100.00
65756;BME280;52489;47.502;18.940;2022-11-18T05:54:49;96607.81;;;6.91;100.00
65756;BME280;52489;47.502;18.940;2022-11-18T05:56:07;96601.53;;;6.75;100.00
65756;BME280;52489;47.502;18.940;2022-11-18T05:57:12;96601.22;;;6.68;100.00
65756;BME280;52489;47.502;18.940;2022-11-18T05:58:14;96596.63;;;6.73;100.00
65756;BME280;52489;47.502;18.940;2022-11-18T05:59:17;96598.00;;;6.79;100.00
65756;BME280;52489;47.502;18.940;2022-11-18T06:00:20;96593.13;;;6.87;100.00
65756;BME280;52489;47.502;18.940;2022-11-18T06:01:36;96593.56;;;6.80;100.00
65756;BME280;52489;47.502;18.940;2022-11-18T06:02:41;96596.59;;;6.56;100.00
65756;BME280;52489;47.502;18.940;2022-11-18T06:03:45;96602.44;;;6.61;100.00
65756;BME280;52489;47.502;18.940;2022-11-18T06:04:56;96606.12;;;6.69;100.00
65756;BME280;52489;47.502;18.940;2022-11-18T06:06:02;96613.91;;;6.52;100.00
65756;BME280;52489;47.502;18.940;2022-11-18T06:07:11;96611.22;;;6.26;100.00
65756;BME280;52489;47.502;18.940;2022-11-18T06:08:17;96618.88;;;6.22;100.00